Wild Boar Gully, Santa Catalina Island Weather observations

Data are for 10 minute period ending at time listed.
 Day   Time   Solar   Ave.   Ave.  Ave.  Vector    Max.   Stn.    Total
  of    of     Rad.   Air    Rel.  Wind   Wind     Wind   Baro.  Precip.
Year   Day            Temp.  Hum.  Speed  Dir.     Gust   Pres.         
2014   (PST)   W/m2    F      %     mph   deg.      mph    mb.     in.  
------------------------------------------------------------------------
 240   12:20  762.0    86   47.6    17    275.1    22.7    999.0   0.00  
 240   12:30  761.0    87   44.5    16    273.6    23.9    999.0   0.00  
 240   12:40  756.0    86   41.5    16    281.7    25.6    999.0   0.00  
 240   12:50  748.0    87   40.8    16    281.7    22.7    999.0   0.00  
 240   13:00  742.0    88   38.4    16    274.7    22.7    999.0   0.00  
 240   13:10  734.0    89   34.6    16    291.3    25.6    999.0   0.00  
 240   13:20  723.0    87   37.9    16    280.1    24.5    999.0   0.00  
 240   13:30  709.0    87   36.8    18    272.4    22.7    999.0   0.00  
 240   13:40  695.0    87   35.5    18    281.5    25.6    999.0   0.00  
 240   13:50  680.0    88   26.1    21    288.9    28.0    999.0   0.00  
 240   14:00  663.0    87   32.1    20    277.0    28.6    999.0   0.00  
 240   14:10  645.0    87   28.4    20    291.9    29.8    999.0   0.00  
 240   14:20  626.0    88   22.5    23    291.4    31.0    999.0   0.00  
 240   14:30  606.0    88   21.2    23    292.7    32.8    999.0   0.00  
 240   14:40  585.0    87   21.7    23    299.1    31.6    999.0   0.00  
 240   14:50  563.0    87   21.5    23    301.4    31.0    999.0   0.00  
 240   15:00  540.0    87   20.4    25    297.8    31.6    999.0   0.00  
 240   15:10  516.0    87   21.6    25    300.1    36.4    999.0   0.00  
 240   15:20  491.0    86   20.1    29    299.8    35.8    999.0   0.00  
 240   15:30  467.0    86   21.4    28    299.2    37.0    999.0   0.00  
 240   15:40  442.0    86   21.1    28    298.8    36.4    999.0   0.00  
 240   15:50  416.0    86   20.6    29    298.0    37.6    999.0   0.00  
 240   16:00  389.0    86   20.5    28    299.6    38.2    999.0   0.00  
 240   16:10  362.0    86   18.9    29    300.2    37.6    999.0   0.00  
 240   16:20  334.0    85   19.7    30    298.6    37.0    999.0   0.00  
 240   16:30  305.0    85   19.6    30    300.1    39.9    999.0   0.00  
 240   16:40  276.0    85   20.3    31    301.8    38.2    999.0   0.00  
 240   16:50  248.0    86   20.0    30    299.2    38.8    999.0   0.00  
 240   17:00  219.0    86   18.8    28    301.0    38.8    999.0   0.00  
 240   17:10  191.0    87   17.6    28    300.3    36.4    999.0   0.00  
 240   17:20  163.0    87   16.8    29    302.3    40.5    999.0   0.00  
 240   17:30  137.0    88   15.9    28    302.1    36.4    999.0   0.00  
 240   17:40  111.0    88   17.3    26    299.5    35.2    999.0   0.00  
 240   17:50   84.0    87   18.8    22    305.1    28.0    999.0   0.00  
 240   18:00   51.0    86   20.4    23    302.3    31.6    999.0   0.00  
 240   18:10   28.0    85   19.6    28    301.3    35.2    999.0   0.00  
 240   18:20   12.0    87   17.2    26    299.7    35.2    999.0   0.00  
 240   18:30    4.0    87   16.6    27    301.3    35.8    999.0   0.00  
 240   18:40    2.0    87   18.1    27    301.6    34.6    999.0   0.00  
 240   18:50    0.0    86   20.3    24    305.6    32.8    999.0   0.00  
 240   19:00    0.0    86   21.2    24    301.8    31.0    999.0   0.00  
 240   19:10    0.0    85   20.8    22    305.1    30.4    999.0   0.00  
 240   19:20    0.0    86   19.4    22    305.5    29.8    999.0   0.00  
 240   19:30    0.0    86   18.5    22    305.3    29.8    999.0   0.00  
 240   19:40    0.0    85   20.1    20    311.9    28.0    999.0   0.00  
 240   19:50    0.0    84   22.8    18    316.5    27.4    999.0   0.00  
 240   20:00    0.0    84   22.8    18    316.9    26.2    999.0   0.00  
 240   20:10    0.0    83   21.7    19    313.6    26.8    999.0   0.00  
 240   20:20    0.0    83   21.8    19    311.5    26.8    999.0   0.00  
 240   20:30    0.0    83   20.5    18    310.7    26.2    999.0   0.00  
 240   20:40    0.0    82   22.8    15    310.5    22.1    999.0   0.00  
 240   20:50    0.0    82   25.5    14    307.9    22.1    999.0   0.00  
 240   21:00    0.0    80   31.9    11    300.4    19.7    999.0   0.00  
 240   21:10    0.0    80   29.8    13    310.0    24.5    999.0   0.00  
 240   21:20    0.0    81   28.9    13    307.5    22.1    999.0   0.00  
 240   21:30    0.0    79   35.1     8    278.6    14.9    999.0   0.00  
 240   21:40    0.0    76   46.1     5    263.7    22.1    999.0   0.00  
 240   21:50    0.0    80   28.8     9    286.9    20.9    999.0   0.00  
 240   22:00    0.0    77   39.7     5    264.1    11.9    999.0   0.00  
 240   22:10    0.0    74   55.7     5    186.5     7.8    999.0   0.00  
 240   22:20    0.0    73   57.0     4    226.2     6.6    999.0   0.00  
 240   22:30    0.0    72   64.6     4    259.0     6.6    999.0   0.00  
 240   22:40    0.0    71   69.1     4    256.3    10.2    999.0   0.00  
 240   22:50    0.0    70   69.5     3    236.2     9.0    999.0   0.00  
 240   23:00    0.0    70   71.2     5    240.0    11.3    999.0   0.00  
 240   23:10    0.0    70   71.8     5    235.7     9.0    999.0   0.00  
 240   23:20    0.0    70   67.4     3    279.6    10.8    999.0   0.00  
 240   23:30    0.0    76   48.2     7    287.6    13.1    999.0   0.00  
 240   23:40    0.0    71   69.4     8    267.7    12.5    999.0   0.00  
 240   23:50    0.0    69   77.3     6    265.7    11.9    999.0   0.00  
 241    0:00    0.0    69   80.1     5    266.8    10.2    999.0   0.00  
 241    0:10    0.0    68   81.3     4    275.5     9.6    999.0   0.00  
 241    0:20    0.0    68   81.9     6    288.5     9.0    999.0   0.00  
 241    0:30    0.0    68   81.3     3    193.3     6.0    999.0   0.00  
 241    0:40    0.0    67   76.3     3    106.1     5.4    999.0   0.00  
 241    0:50    0.0    71   61.7     5     36.4    10.8    999.0   0.00  
 241    1:00    0.0    77   39.3     3     37.6     7.8    999.0   0.00  
 241    1:10    0.0    77   37.5     2    107.7     3.6    999.0   0.00  
 241    1:20    0.0    74   48.6     2    138.1     3.0    999.0   0.00  
 241    1:30    0.0    72   51.9     3    105.3     6.0    999.0   0.00  
 241    1:40    0.0    71   66.7     4    137.3     6.0    999.0   0.00  
 241    1:50    0.0    70   63.6     1    299.9     1.8    999.0   0.00  
 241    2:00    0.0    70   59.7     1     72.3     2.4    999.0   0.00  
 241    2:10    0.0    71   52.2     1    139.4     2.4    999.0   0.00  
 241    2:20    0.0    71   58.9     1    209.7     3.0    999.0   0.00  
 241    2:30    0.0    70   54.0     1    105.8     0.6    999.0   0.00  
 241    2:40    0.0    71   65.5     3    153.1     4.8    999.0   0.00  
 241    2:50    0.0    69   69.8     2    131.0     4.2    999.0   0.00  
 241    3:00    0.0    68   69.5     2    113.8     3.0    999.0   0.00  
 241    3:10    0.0    69   70.0     3    176.6     5.4    999.0   0.00  
 241    3:20    0.0    66   69.0     1     54.6     1.2    999.0   0.00  
 241    3:30    0.0    68   69.6     1    185.8     3.6    999.0   0.00  
 241    3:40    0.0    68   67.8     2    188.3     4.2    999.0   0.00  
 241    3:50    0.0    68   65.9     2    206.0     4.2    999.0   0.00  
 241    4:00    0.0    68   66.4     1    109.8     2.4    999.0   0.00  
 241    4:10    0.0    68   68.2     4    251.7     7.2    999.0   0.00  
 241    4:20    0.0    68   71.3     6    272.3     8.4    999.0   0.00  
 241    4:30    0.0    67   75.7     6    287.7    10.2    999.0   0.00  
 241    4:40    0.0    66   78.2     6    266.8    10.8    999.0   0.00  
 241    4:50    0.0    65   76.8     4    282.4     6.0    999.0   0.00  
 241    5:00    0.0    66   76.4     5    281.2     8.4    999.0   0.00  
 241    5:10    0.0    66   75.1     3    291.9     7.2    999.0   0.00  
 241    5:20    0.0    67   71.1     3    120.9     5.4    999.0   0.00  
 241    5:30    2.0    68   73.0     3    130.9     4.2    999.0   0.00  
 241    5:40    6.0    67   74.8     1     97.5     3.0    999.0   0.00  
 241    5:50   10.0    66   73.8     1     72.7     1.2    999.0   0.00  
 241    6:00   15.0    66   72.7     1     84.2     1.8    999.0   0.00  
 241    6:10   68.0    68   72.3     1    243.5     4.2    999.0   0.00  
 241    6:20   95.0    68   74.1     4    289.2     7.2    999.0   0.00  
 241    6:30  120.0    68   77.8     6    280.8     7.8    999.0   0.00  
 241    6:40  147.0    68   79.7     6    282.7     9.0    999.0   0.00  
 241    6:50  175.0    68   80.2     6    282.4     9.0    999.0   0.00  
 241    7:00  202.0    69   79.3     4    250.6     7.2    999.0   0.00  
 241    7:10  230.0    69   79.2     7    261.4     9.6    999.0   0.00  
 241    7:20  260.0    69   79.8     6    265.3     9.6    999.0   0.00  
 241    7:30  289.0    69   79.2     6    268.7     9.6    999.0   0.00  
 241    7:40  318.0    70   79.0     7    269.6    10.8    999.0   0.00  
 241    7:50  347.0    70   77.9     7    271.5    10.8    999.0   0.00  
 241    8:00  375.0    71   76.7     7    269.9    10.2    999.0   0.00  
 241    8:10  403.0    71   75.7     8    270.1    10.2    999.0   0.00  
 241    8:20  429.0    72   74.7     7    263.9    10.2    999.0   0.00  
 241    8:30  456.0    73   73.0     6    261.2     9.0    999.0   0.00  
 241    8:40  482.0    72   74.4     9    267.9    13.1    999.0   0.00  
 241    8:50  507.0    72   75.4     7    256.0    11.9    999.0   0.00  
 241    9:00  530.0    72   75.1     9    264.3    13.7    999.0   0.00  
 241    9:10  554.0    72   75.0     8    265.7    13.1    999.0   0.00  
 241    9:20  576.0    72   74.9    11    270.6    16.1    999.0   0.00  
 241    9:30  598.0    72   75.2     9    255.4    14.3    999.0   0.00  
 241    9:40  618.0    71   76.5    10    264.4    16.7    999.0   0.00  
 241    9:50  637.0    71   76.1     9    247.4    13.1    999.0   0.00  
 241   10:00  656.0    72   75.3     8    242.7    14.3    999.0   0.00  
 241   10:10  674.0    72   74.5     8    247.6    13.1    999.0   0.00  
 241   10:20  690.0    72   74.1     8    241.7    13.7    999.0   0.00  
 241   10:30  705.0    72   73.7     9    238.0    14.3    999.0   0.00  
 241   10:40  718.0    73   72.7     8    245.8    12.5    999.0   0.00  
 241   10:50  730.0    72   73.6     9    240.4    15.5    999.0   0.00  
 241   11:00  739.0    71   75.2    10    242.3    16.1    999.0   0.00  
 241   11:10  749.0    72   75.3     9    237.3    14.9    999.0   0.00  
 241   11:20  758.0    72   73.8    10    235.6    17.3    999.0   0.00  
 241   11:30  764.0    72   74.8    10    238.1    17.3    999.0   0.00  
 241   11:40  769.0    72   73.8     9    237.7    16.1    999.0   0.00  
 241   11:50  772.0    72   73.2    10    246.5    16.7    999.0   0.00  
 241   12:00  774.0    72   73.3    10    240.2    17.3    999.0   0.00  
 241   12:10  773.0    73   72.9    10    242.1    14.3    999.0   0.00  

Return to Wild Boar Gully graphs page.


Western Regional Climate Center,wrcc@dri.edu